ESSD/BLE METAR and TAF weather

Enter ICAO airport designator
Station Type Date Time Source
ESSD METAR 2019/02/23 23:20 UTC NOAA

ESSD 232320Z AUTO 26005KT 9999 NCD 02/// Q1028


Station Type Date Time Source
ESSD Decoded METAR 2019/02/23 23:20 UTC NOAA

Borlange, Sweden (ESSD) 60-26N 015-31E 0M
Feb 23, 2019 - 06:20 PM EST / 2019.02.23 2320 UTC
Wind: from the W (260 degrees) at 6 MPH (5 KT):0
Visibility: greater than 7 mile(s):0
Temperature: 35 F (2 C)
Windchill: 30 F (-1 C):1
Pressure (altimeter): 30.36 in. Hg (1028 hPa)
ob: ESSD 232320Z AUTO 26005KT 9999 NCD 02/// Q1028
cycle: 23

Station Type Date Time Source
ESSD TAF 2018/05/02 04:48 UTC NOAA

TAF TAF ESSD 020320Z 0204/0412 27008KT 9999 BKN019 PROB40 0204/0209 BKN006


Example: see airport list